Time;durP1;ratioP1;P1;durP2;ratioP2;P2;SDS_P1;SDS_P2;PMS_P1;PMS_P2;Temp;Humidity;BMP_temperature;BMP_pressure;BME280_temperature;BME280_humidity;BME280_pressure;Samples;Min_cycle;Max_cycle;Signal;HPM_P1;HPM_P2
2022/07/12 00:01:04;;;;;;;;;;;;;;;17.88;59.95;102314.72;5045475;28;19917;-88
2022/07/12 00:03:29;;;;;;;;;;;;;;;17.88;59.79;102322.75;5071088;28;19916;-88
2022/07/12 00:05:55;;;;;;;;;;;;;;;17.89;59.82;102320.94;5070233;28;19917;-88
2022/07/12 00:08:20;;;;;;;;;;;;;;;17.89;60.20;102320.94;5066173;28;19924;-88
2022/07/12 00:10:45;;;;;;;;;;;;;;;17.88;59.93;102319.22;5067524;28;20279;-88
2022/07/12 00:13:11;;;;;;;;;;;;;;;17.84;60.35;102319.34;5064576;28;19920;-88
2022/07/12 00:15:36;;;;;;;;;;;;;;;17.79;60.22;102312.47;5068994;28;19920;-88
2022/07/12 00:18:01;;;;;;;;;;;;;;;17.71;61.58;102312.81;5045110;28;19917;-88
2022/07/12 00:20:26;;;;;;;;;;;;;;;17.59;60.81;102316.06;5068418;28;20451;-88
2022/07/12 00:22:52;;;;;;;;;;;;;;;17.53;61.04;102313.66;5070304;28;19955;-88
2022/07/12 00:25:17;;;;;;;;;;;;;;;17.54;61.33;102307.38;5070437;28;19924;-88
2022/07/12 00:27:42;;;;;;;;;;;;;;;17.56;61.16;102298.34;5068691;28;19924;-88
2022/07/12 00:30:08;;;;;;;;;;;;;;;17.59;60.73;102306.22;5050567;28;19919;-88
2022/07/12 00:32:33;;;;;;;;;;;;;;;17.62;60.60;102307.88;5070626;28;20264;-88
2022/07/12 00:34:59;;;;;;;;;;;;;;;17.63;61.02;102309.63;5066070;28;19924;-88
2022/07/12 00:37:24;;;;;;;;;;;;;;;17.62;60.86;102307.88;5062243;28;19955;-88
2022/07/12 00:39:50;;;;;;;;;;;;;;;17.63;60.74;102308.78;5068440;28;19917;-88
2022/07/12 00:42:15;;;;;;;;;;;;;;;17.64;60.60;102306.03;5069172;28;19936;-88
2022/07/12 00:44:40;;;;;;;;;;;;;;;17.64;60.60;102300.66;5048154;28;19917;-88
2022/07/12 00:47:06;;;;;;;;;;;;;;;17.62;60.48;102297.19;5067348;28;19986;-89
2022/07/12 00:49:31;;;;;;;;;;;;;;;17.57;60.79;102297.38;5065594;28;19917;-89
2022/07/12 00:51:57;;;;;;;;;;;;;;;17.53;60.67;102295.81;5052809;28;20409;-88
2022/07/12 00:54:22;;;;;;;;;;;;;;;17.48;60.73;102294.28;5069701;28;19932;-88
2022/07/12 00:56:47;;;;;;;;;;;;;;;17.43;60.92;102291.81;5055356;28;20066;-88
2022/07/12 00:59:13;;;;;;;;;;;;;;;17.42;61.07;102302.59;5064910;28;20019;-88
2022/07/12 01:01:38;;;;;;;;;;;;;;;17.42;61.08;102298.09;5065996;28;19979;-88
2022/07/12 01:04:03;;;;;;;;;;;;;;;17.43;60.79;102301.66;5070241;28;19924;-88
2022/07/12 01:06:29;;;;;;;;;;;;;;;17.38;60.86;102301.84;5070177;28;19920;-88
2022/07/12 01:08:56;;;;;;;;;;;;;;;17.34;60.67;102300.25;5051437;28;20007;-88
2022/07/12 01:11:21;;;;;;;;;;;;;;;17.31;60.84;102313.78;5061663;28;20399;-88
2022/07/12 01:13:47;;;;;;;;;;;;;;;17.28;61.15;102308.56;5049869;28;19928;-88
2022/07/12 01:16:14;;;;;;;;;;;;;;;17.25;61.06;102303.34;5070389;28;19924;-89
2022/07/12 01:18:40;;;;;;;;;;;;;;;17.22;61.18;102308.84;5065969;28;19920;-89
2022/07/12 01:21:07;;;;;;;;;;;;;;;17.21;61.60;102304.44;5066373;28;20298;-89
2022/07/12 01:23:33;;;;;;;;;;;;;;;17.14;61.11;102311.84;5064861;28;19921;-89
2022/07/12 01:25:59;;;;;;;;;;;;;;;17.13;61.17;102315.47;5056905;28;20007;-89
2022/07/12 01:28:24;;;;;;;;;;;;;;;17.09;61.08;102309.38;5067622;28;20339;-89
2022/07/12 01:30:50;;;;;;;;;;;;;;;17.07;61.26;102315.75;5067100;28;20336;-88
2022/07/12 01:33:15;;;;;;;;;;;;;;;17.08;61.27;102317.47;5043784;28;19981;-89
2022/07/12 01:35:41;;;;;;;;;;;;;;;17.04;61.40;102337.22;5064969;28;19917;-89
2022/07/12 01:38:06;;;;;;;;;;;;;;;16.99;61.54;102329.41;5063103;28;20030;-88
2022/07/12 01:40:32;;;;;;;;;;;;;;;16.98;61.47;102332.16;5068983;28;19916;-89
2022/07/12 01:42:57;;;;;;;;;;;;;;;16.94;61.54;102331.44;5068889;28;19920;-88
2022/07/12 01:45:22;;;;;;;;;;;;;;;16.83;61.28;102331.00;5072069;28;19928;-88
2022/07/12 01:47:48;;;;;;;;;;;;;;;16.67;61.75;102330.75;5049940;28;19917;-88
2022/07/12 01:50:14;;;;;;;;;;;;;;;16.49;62.05;102321.69;5066065;28;19990;-88
2022/07/12 01:52:40;;;;;;;;;;;;;;;16.41;61.92;102333.63;5066179;28;20375;-88
2022/07/12 01:55:06;;;;;;;;;;;;;;;16.37;62.27;102329.34;5062601;28;19917;-88
2022/07/12 01:57:32;;;;;;;;;;;;;;;16.38;62.26;102331.97;5062391;28;19924;-88
2022/07/12 01:59:57;;;;;;;;;;;;;;;16.42;61.75;102327.38;5069172;28;19916;-88
2022/07/12 02:02:25;;;;;;;;;;;;;;;16.41;62.92;102326.47;5067731;28;19977;-88
2022/07/12 02:04:50;;;;;;;;;;;;;;;16.40;62.37;102324.75;5067781;28;19974;-88
2022/07/12 02:07:15;;;;;;;;;;;;;;;16.44;61.23;102313.00;5051708;28;20714;-88
2022/07/12 02:09:41;;;;;;;;;;;;;;;16.45;62.27;102312.06;5073107;28;19916;-88
2022/07/12 02:12:06;;;;;;;;;;;;;;;16.44;61.71;102320.16;5065487;28;20319;-88
2022/07/12 02:14:31;;;;;;;;;;;;;;;16.36;61.85;102314.25;5068633;28;20414;-88
2022/07/12 02:16:56;;;;;;;;;;;;;;;16.28;62.07;102317.25;5067069;28;19917;-88
2022/07/12 02:19:22;;;;;;;;;;;;;;;16.21;61.92;102311.28;5067130;28;19952;-88
2022/07/12 02:21:47;;;;;;;;;;;;;;;16.21;62.05;102307.75;5067133;28;19912;-88
2022/07/12 02:24:12;;;;;;;;;;;;;;;16.18;62.14;102307.84;5047021;28;19916;-88
2022/07/12 02:26:37;;;;;;;;;;;;;;;16.06;62.13;102304.75;5066644;28;19917;-88
2022/07/12 02:29:03;;;;;;;;;;;;;;;16.03;61.73;102310.22;5066312;28;19920;-88
2022/07/12 02:31:28;;;;;;;;;;;;;;;16.02;61.75;102313.81;5064543;28;19942;-88
2022/07/12 02:33:54;;;;;;;;;;;;;;;16.00;62.25;102312.16;5064189;28;20406;-88
2022/07/12 02:36:19;;;;;;;;;;;;;;;16.00;62.18;102317.50;5066978;28;20070;-88
2022/07/12 02:38:44;;;;;;;;;;;;;;;16.01;61.87;102317.41;5066405;28;19916;-88
2022/07/12 02:41:09;;;;;;;;;;;;;;;16.03;61.91;102304.88;5069716;28;20287;-88
2022/07/12 02:43:34;;;;;;;;;;;;;;;16.00;61.81;102309.47;5048352;28;19916;-88
2022/07/12 02:46:07;;;;;;;;;;;;;;;15.88;61.96;102316.16;5065038;28;19955;-88
2022/07/12 02:48:32;;;;;;;;;;;;;;;15.82;62.10;102317.25;5049023;28;19932;-88
2022/07/12 02:50:58;;;;;;;;;;;;;;;15.80;62.71;102321.78;5065540;28;19927;-88
2022/07/12 02:53:24;;;;;;;;;;;;;;;15.66;62.66;102321.44;5064765;28;20403;-88
2022/07/12 02:55:49;;;;;;;;;;;;;;;15.62;63.02;102313.56;5049982;28;20401;-88
2022/07/12 02:58:14;;;;;;;;;;;;;;;15.64;62.95;102309.97;5062741;28;19920;-88
2022/07/12 03:00:40;;;;;;;;;;;;;;;15.62;63.16;102309.13;5043847;28;19924;-88
2022/07/12 03:03:07;;;;;;;;;;;;;;;15.58;63.33;102304.84;5069246;28;19957;-88
2022/07/12 03:05:33;;;;;;;;;;;;;;;15.55;63.23;102310.28;5049274;28;19924;-88
2022/07/12 03:07:58;;;;;;;;;;;;;;;15.45;63.25;102322.22;5065220;28;19912;-88
2022/07/12 03:10:23;;;;;;;;;;;;;;;15.40;62.83;102318.84;5044431;28;19921;-88
2022/07/12 03:12:48;;;;;;;;;;;;;;;15.35;62.94;102315.50;5068134;28;19939;-88
2022/07/12 03:15:13;;;;;;;;;;;;;;;15.39;62.65;102312.66;5065751;28;19917;-88
2022/07/12 03:17:39;;;;;;;;;;;;;;;15.44;62.93;102317.81;5049159;28;19948;-88
2022/07/12 03:20:11;;;;;;;;;;;;;;;15.43;62.52;102308.06;5067908;28;19948;-88
2022/07/12 03:22:36;;;;;;;;;;;;;;;15.41;62.49;102308.13;5050305;28;19916;-89
2022/07/12 03:25:01;;;;;;;;;;;;;;;15.45;62.68;102311.56;5068305;28;19927;-88
2022/07/12 03:27:26;;;;;;;;;;;;;;;15.47;63.04;102313.22;5077677;28;19927;-88
2022/07/12 03:29:51;;;;;;;;;;;;;;;15.27;63.21;102310.44;5064579;28;20367;-88
2022/07/12 03:32:17;;;;;;;;;;;;;;;15.13;63.26;102313.59;5066797;28;19916;-88
2022/07/12 03:34:42;;;;;;;;;;;;;;;15.14;63.40;102310.00;5056013;28;19967;-88
2022/07/12 03:37:07;;;;;;;;;;;;;;;15.17;62.59;102307.22;5055541;28;19912;-89
2022/07/12 03:39:32;;;;;;;;;;;;;;;15.21;63.12;102306.19;5055923;28;19928;-88
2022/07/12 03:41:58;;;;;;;;;;;;;;;15.19;62.92;102301.84;5056444;28;19939;-88
2022/07/12 03:44:23;;;;;;;;;;;;;;;15.10;63.12;102305.69;5068073;28;19969;-88
2022/07/12 03:46:48;;;;;;;;;;;;;;;15.05;62.71;102308.53;5068921;28;20121;-89
2022/07/12 03:49:13;;;;;;;;;;;;;;;15.04;63.28;102314.78;5069841;28;19920;-88
2022/07/12 03:51:39;;;;;;;;;;;;;;;15.08;63.30;102318.22;5053542;28;20019;-89
2022/07/12 03:54:07;;;;;;;;;;;;;;;15.11;63.53;102309.22;5054384;28;19925;-88
2022/07/12 03:59:16;;;;;;;;;;;;;;;15.09;63.26;102317.28;5069952;28;19966;-88
2022/07/12 04:01:43;;;;;;;;;;;;;;;15.04;63.55;102320.09;5050431;28;20356;-88
2022/07/12 04:04:08;;;;;;;;;;;;;;;15.10;63.41;102313.69;5071591;28;19917;-89
2022/07/12 04:06:33;;;;;;;;;;;;;;;15.07;63.36;102313.81;5066987;28;19920;-88
2022/07/12 04:08:58;;;;;;;;;;;;;;;14.94;65.36;102316.03;5049902;28;19913;-89
2022/07/12 04:11:23;;;;;;;;;;;;;;;14.83;64.40;102309.31;5067452;28;19920;-88
2022/07/12 04:13:49;;;;;;;;;;;;;;;14.90;65.10;102302.88;5052764;28;19928;-88
2022/07/12 04:16:14;;;;;;;;;;;;;;;15.00;64.99;102304.28;5067229;28;19923;-88
2022/07/12 04:18:39;;;;;;;;;;;;;;;15.10;64.47;102299.50;5070001;28;19951;-88
2022/07/12 04:21:04;;;;;;;;;;;;;;;15.16;63.62;102300.16;5069525;28;20341;-88
2022/07/12 04:23:29;;;;;;;;;;;;;;;15.19;63.92;102308.03;5053425;28;19916;-88
2022/07/12 04:25:55;;;;;;;;;;;;;;;15.15;63.47;102311.72;5069907;28;19939;-88
2022/07/12 04:28:20;;;;;;;;;;;;;;;15.16;63.80;102313.50;5052892;28;19916;-88
2022/07/12 04:30:46;;;;;;;;;;;;;;;15.19;63.48;102316.03;5050438;28;20363;-88
2022/07/12 04:33:12;;;;;;;;;;;;;;;15.22;63.85;102323.91;5071136;28;19924;-88
2022/07/12 04:35:37;;;;;;;;;;;;;;;15.24;63.61;102322.06;5070259;28;20359;-88
2022/07/12 04:38:02;;;;;;;;;;;;;;;15.29;64.03;102321.88;5049049;28;20103;-88
2022/07/12 04:40:28;;;;;;;;;;;;;;;15.22;64.03;102321.25;5068845;28;19920;-88
2022/07/12 04:42:53;;;;;;;;;;;;;;;15.16;64.10;102325.94;5076618;28;20352;-88
2022/07/12 04:45:18;;;;;;;;;;;;;;;15.21;64.58;102326.66;5068690;28;19967;-88
2022/07/12 04:47:43;;;;;;;;;;;;;;;15.32;64.62;102327.97;5049373;28;19921;-88
2022/07/12 04:50:09;;;;;;;;;;;;;;;15.38;64.38;102331.34;5070837;28;19920;-88
2022/07/12 04:52:34;;;;;;;;;;;;;;;15.41;65.26;102321.44;5066477;28;19928;-88
2022/07/12 04:55:00;;;;;;;;;;;;;;;15.50;65.25;102322.91;5067522;28;20019;-88
2022/07/12 04:57:25;;;;;;;;;;;;;;;15.62;64.94;102324.22;5070340;28;19916;-88
2022/07/12 04:59:50;;;;;;;;;;;;;;;15.69;64.90;102324.00;5068259;28;20224;-88
2022/07/12 05:02:15;;;;;;;;;;;;;;;15.79;64.49;102328.03;5067530;28;19970;-88
2022/07/12 05:04:40;;;;;;;;;;;;;;;15.84;65.35;102329.66;5065541;28;19974;-88
2022/07/12 05:07:06;;;;;;;;;;;;;;;15.90;65.58;102324.97;5067632;28;20303;-88
2022/07/12 05:09:31;;;;;;;;;;;;;;;16.01;66.03;102327.22;5070677;28;20405;-88
2022/07/12 05:11:56;;;;;;;;;;;;;;;16.10;66.00;102332.19;5070373;28;20336;-88
2022/07/12 05:14:21;;;;;;;;;;;;;;;16.21;66.66;102337.09;5066248;28;19925;-88
2022/07/12 05:16:46;;;;;;;;;;;;;;;16.28;66.58;102341.28;5066223;28;19916;-88
2022/07/12 05:19:12;;;;;;;;;;;;;;;16.37;66.40;102350.69;5051690;28;19920;-88
2022/07/12 05:21:37;;;;;;;;;;;;;;;16.47;67.00;102357.41;5068299;28;20497;-88
2022/07/12 05:24:03;;;;;;;;;;;;;;;16.54;66.45;102350.88;5065335;28;19924;-88
2022/07/12 05:26:29;;;;;;;;;;;;;;;16.61;66.68;102352.38;5050643;28;19954;-88
2022/07/12 05:28:54;;;;;;;;;;;;;;;16.69;67.10;102358.25;5048938;28;19916;-88
2022/07/12 05:31:19;;;;;;;;;;;;;;;16.77;67.95;102355.31;5067638;28;19916;-88
2022/07/12 05:33:44;;;;;;;;;;;;;;;16.82;67.76;102366.66;5068790;28;19928;-88
2022/07/12 05:36:09;;;;;;;;;;;;;;;16.90;67.06;102371.69;5049269;28;20349;-88
2022/07/12 05:38:35;;;;;;;;;;;;;;;17.00;67.04;102367.69;5051689;28;20425;-88
2022/07/12 05:41:00;;;;;;;;;;;;;;;17.06;66.76;102367.41;5066787;28;20399;-88
2022/07/12 05:43:25;;;;;;;;;;;;;;;17.13;66.87;102376.94;5069414;28;20007;-88
2022/07/12 05:45:50;;;;;;;;;;;;;;;17.24;66.95;102377.31;5047326;28;20019;-88
2022/07/12 05:48:16;;;;;;;;;;;;;;;17.36;68.20;102386.63;5068651;28;19919;-88
2022/07/12 05:50:41;;;;;;;;;;;;;;;17.49;67.72;102384.28;5068749;28;20439;-88
2022/07/12 05:53:21;;;;;;;;;;;;;;;17.58;66.08;102390.09;5049427;28;19920;-88
2022/07/12 05:55:47;;;;;;;;;;;;;;;17.71;66.09;102393.06;5065908;28;19923;-88
2022/07/12 05:58:12;;;;;;;;;;;;;;;17.88;67.15;102396.81;5050126;28;19920;-88
2022/07/12 06:00:38;;;;;;;;;;;;;;;18.00;66.90;102390.88;5065145;28;19912;-88
2022/07/12 06:03:03;;;;;;;;;;;;;;;18.12;68.91;102403.69;5048348;28;20049;-88
2022/07/12 06:05:28;;;;;;;;;;;;;;;18.21;68.14;102397.03;5066106;28;19923;-88
2022/07/12 06:07:54;;;;;;;;;;;;;;;18.29;67.75;102403.78;5067072;28;20359;-88
2022/07/12 06:10:19;;;;;;;;;;;;;;;18.43;67.92;102407.59;5046912;28;19912;-87
2022/07/12 06:12:44;;;;;;;;;;;;;;;18.56;68.04;102403.41;5049680;28;20304;-87
2022/07/12 06:15:10;;;;;;;;;;;;;;;18.67;67.39;102411.75;5067524;28;19935;-86
2022/07/12 06:17:35;;;;;;;;;;;;;;;18.79;66.51;102407.63;5064726;28;19916;-86
2022/07/12 06:20:00;;;;;;;;;;;;;;;18.92;67.19;102413.25;5068669;28;19966;-86
2022/07/12 06:22:25;;;;;;;;;;;;;;;19.07;67.12;102416.03;5066890;28;19923;-86
2022/07/12 06:24:51;;;;;;;;;;;;;;;19.22;63.91;102410.84;5064554;28;19924;-86
2022/07/12 06:27:16;;;;;;;;;;;;;;;19.41;64.96;102408.94;5065587;28;19924;-86
2022/07/12 06:29:41;;;;;;;;;;;;;;;19.59;65.49;102417.84;5066561;28;19935;-86
2022/07/12 06:32:07;;;;;;;;;;;;;;;19.73;65.49;102414.44;5064734;28;20011;-86
2022/07/12 06:34:35;;;;;;;;;;;;;;;19.89;65.66;102409.97;5061387;28;19920;-86
2022/07/12 06:37:01;;;;;;;;;;;;;;;20.04;65.49;102408.25;5067684;28;19960;-86
2022/07/12 06:39:26;;;;;;;;;;;;;;;20.10;65.27;102399.88;5065141;28;19959;-86
2022/07/12 06:41:51;;;;;;;;;;;;;;;20.23;64.97;102402.72;5067772;28;20372;-86
2022/07/12 06:44:17;;;;;;;;;;;;;;;20.46;63.93;102409.50;5046881;28;19978;-86
2022/07/12 06:46:42;;;;;;;;;;;;;;;20.61;63.74;102414.03;5064802;28;19916;-86
2022/07/12 06:49:07;;;;;;;;;;;;;;;20.74;64.49;102409.69;5065025;28;19916;-86
2022/07/12 06:51:33;;;;;;;;;;;;;;;20.82;64.56;102411.94;5048559;28;19926;-87
2022/07/12 06:53:58;;;;;;;;;;;;;;;20.78;61.53;102410.38;5049242;28;19932;-87
2022/07/12 06:56:23;;;;;;;;;;;;;;;20.83;62.77;102409.13;5061333;28;19920;-86
2022/07/12 06:58:48;;;;;;;;;;;;;;;20.89;63.34;102418.69;5066003;28;19926;-86
2022/07/12 07:01:13;;;;;;;;;;;;;;;20.88;64.55;102414.25;5045229;28;19946;-87
2022/07/12 07:03:38;;;;;;;;;;;;;;;20.93;64.09;102408.59;5066318;28;19927;-86
2022/07/12 07:06:04;;;;;;;;;;;;;;;20.99;64.86;102410.94;5067168;28;19928;-86
2022/07/12 07:08:31;;;;;;;;;;;;;;;21.07;64.57;102412.19;5066468;28;20357;-85
2022/07/12 07:10:56;;;;;;;;;;;;;;;21.26;64.01;102413.78;5063898;28;20408;-86
2022/07/12 07:13:21;;;;;;;;;;;;;;;21.32;63.15;102413.47;5059480;28;19940;-86
2022/07/12 07:15:46;;;;;;;;;;;;;;;21.42;61.99;102414.66;5063530;28;19928;-86
2022/07/12 07:18:12;;;;;;;;;;;;;;;21.62;62.47;102402.66;5067531;28;19924;-86
2022/07/12 07:20:38;;;;;;;;;;;;;;;21.67;62.68;102400.53;5066410;28;19939;-86
2022/07/12 07:23:03;;;;;;;;;;;;;;;21.80;61.84;102401.50;5068616;28;19927;-86
2022/07/12 07:25:28;;;;;;;;;;;;;;;21.89;60.99;102400.06;5063763;28;20764;-86
2022/07/12 07:27:53;;;;;;;;;;;;;;;22.00;61.53;102405.63;5062554;28;19924;-86
2022/07/12 07:33:02;;;;;;;;;;;;;;;22.25;59.75;102404.09;5065602;28;19935;-86
2022/07/12 07:35:28;;;;;;;;;;;;;;;22.47;60.15;102408.94;5067838;28;19917;-87
2022/07/12 07:37:53;;;;;;;;;;;;;;;22.93;59.17;102406.78;5061115;28;19928;-86
2022/07/12 07:40:18;;;;;;;;;;;;;;;23.53;57.62;102408.06;5064035;28;19931;-86
2022/07/12 07:42:43;;;;;;;;;;;;;;;23.87;55.88;102404.72;5065175;28;19916;-86
2022/07/12 07:45:10;;;;;;;;;;;;;;;24.18;56.91;102402.53;5065125;28;19916;-86
2022/07/12 07:47:48;;;;;;;;;;;;;;;24.66;55.03;102405.31;5065051;28;19927;-86
2022/07/12 07:50:14;;;;;;;;;;;;;;;24.91;53.53;102399.78;5067952;28;19940;-86
2022/07/12 07:52:39;;;;;;;;;;;;;;;25.00;54.19;102402.78;5068992;28;19920;-86
2022/07/12 07:55:05;;;;;;;;;;;;;;;25.03;52.39;102403.38;5068287;28;19940;-87
2022/07/12 07:57:30;;;;;;;;;;;;;;;24.96;53.30;102406.69;5063004;28;19916;-87
2022/07/12 07:59:55;;;;;;;;;;;;;;;24.84;52.42;102403.06;5066641;28;20592;-86
2022/07/12 08:02:20;;;;;;;;;;;;;;;24.57;53.70;102397.88;5041207;28;19920;-87
2022/07/12 08:04:46;;;;;;;;;;;;;;;24.47;53.32;102404.97;5045981;28;20482;-86
2022/07/12 08:07:11;;;;;;;;;;;;;;;24.75;54.52;102406.47;5060256;28;20036;-86
2022/07/12 08:09:36;;;;;;;;;;;;;;;25.06;53.44;102402.28;5061613;28;20054;-86
2022/07/12 08:12:02;;;;;;;;;;;;;;;25.43;52.11;102395.78;5062178;28;19999;-87
2022/07/12 08:14:27;;;;;;;;;;;;;;;25.43;52.37;102401.19;5064760;28;19924;-86
2022/07/12 08:16:52;;;;;;;;;;;;;;;25.55;52.54;102403.91;5065467;28;19945;-87
2022/07/12 08:19:18;;;;;;;;;;;;;;;25.60;51.12;102405.28;5068927;28;19920;-87
2022/07/12 08:21:43;;;;;;;;;;;;;;;25.88;50.58;102403.97;5071291;28;19920;-86
2022/07/12 08:24:08;;;;;;;;;;;;;;;26.48;50.96;102404.53;5071877;28;20295;-86
2022/07/12 08:26:33;;;;;;;;;;;;;;;26.92;50.17;102403.50;5069038;28;19924;-86
2022/07/12 08:28:58;;;;;;;;;;;;;;;26.88;48.76;102402.06;5059827;28;19924;-87
2022/07/12 08:31:24;;;;;;;;;;;;;;;26.80;49.44;102401.84;5061884;28;20019;-86
2022/07/12 08:33:49;;;;;;;;;;;;;;;27.02;47.63;102400.88;5069610;28;19924;-86
2022/07/12 08:36:15;;;;;;;;;;;;;;;26.88;50.11;102401.19;5075433;28;19971;-87
2022/07/12 08:38:43;;;;;;;;;;;;;;;26.97;48.88;102403.13;5072251;28;20307;-87
2022/07/12 08:41:10;;;;;;;;;;;;;;;26.63;49.01;102410.56;5066869;28;19920;-86
2022/07/12 08:43:36;;;;;;;;;;;;;;;26.48;49.58;102414.50;5065722;28;19924;-87
2022/07/12 08:46:02;;;;;;;;;;;;;;;26.55;50.01;102419.31;5069840;28;19925;-87
2022/07/12 08:48:28;;;;;;;;;;;;;;;26.96;48.53;102418.56;5052540;28;19920;-86
2022/07/12 08:51:00;;;;;;;;;;;;;;;27.22;46.12;102423.63;5063340;28;20390;-86
2022/07/12 08:53:25;;;;;;;;;;;;;;;27.35;46.61;102418.88;5067459;28;19931;-87
2022/07/12 08:55:50;;;;;;;;;;;;;;;27.70;47.07;102423.09;5062829;28;19917;-87
2022/07/12 08:58:16;;;;;;;;;;;;;;;28.68;45.43;102426.03;5068243;28;20405;-86
2022/07/12 09:00:41;;;;;;;;;;;;;;;29.50;44.53;102422.00;5069993;28;19943;-87
2022/07/12 09:03:07;;;;;;;;;;;;;;;29.85;42.96;102417.75;5054873;28;20292;-86
2022/07/12 09:05:33;;;;;;;;;;;;;;;29.95;42.82;102418.56;5068147;28;19932;-86
2022/07/12 09:08:01;;;;;;;;;;;;;;;29.98;39.80;102424.59;5061301;28;19962;-87
2022/07/12 09:10:26;;;;;;;;;;;;;;;29.76;41.21;102422.25;5060462;28;19979;-86
2022/07/12 09:12:52;;;;;;;;;;;;;;;29.69;42.64;102423.84;5064979;28;19963;-87
2022/07/12 09:15:22;;;;;;;;;;;;;;;29.39;43.48;102425.75;5068543;28;19986;-87
2022/07/12 09:17:56;;;;;;;;;;;;;;;29.46;44.25;102426.88;5068480;28;20401;-87
2022/07/12 09:20:21;;;;;;;;;;;;;;;29.77;42.92;102421.22;5066393;28;19921;-87
2022/07/12 09:22:57;;;;;;;;;;;;;;;29.76;39.49;102421.38;5066513;28;20345;-87
2022/07/12 09:25:23;;;;;;;;;;;;;;;29.45;43.47;102416.13;5061875;28;19925;-87
2022/07/12 09:27:50;;;;;;;;;;;;;;;29.48;43.03;102419.41;5065444;28;19985;-87
2022/07/12 09:30:16;;;;;;;;;;;;;;;29.11;43.03;102413.03;5062029;28;20038;-86
2022/07/12 09:38:19;;;;;;;;;;;;;;;29.05;44.74;102408.16;5064265;28;19966;-87
2022/07/12 09:40:44;;;;;;;;;;;;;;;29.58;44.38;102404.94;5051052;28;19920;-87
2022/07/12 09:43:10;;;;;;;;;;;;;;;29.92;42.80;102405.22;5051334;28;20003;-87
2022/07/12 09:45:36;;;;;;;;;;;;;;;30.02;41.91;102405.19;5048881;28;19923;-86
2022/07/12 09:48:02;;;;;;;;;;;;;;;29.97;42.27;102402.91;5068559;28;20201;-87
2022/07/12 09:50:29;;;;;;;;;;;;;;;29.69;42.09;102402.88;5050536;28;19930;-86
2022/07/12 09:52:57;;;;;;;;;;;;;;;29.79;42.58;102402.84;5063843;28;19939;-87
2022/07/12 09:55:24;;;;;;;;;;;;;;;29.86;41.16;102409.44;5064039;28;20009;-87
2022/07/12 09:57:54;;;;;;;;;;;;;;;30.09;41.93;102403.59;5069071;28;19917;-86
2022/07/12 10:00:19;;;;;;;;;;;;;;;30.37;39.64;102394.41;5067095;28;19924;-86
2022/07/12 10:02:45;;;;;;;;;;;;;;;30.82;40.35;102406.28;5067281;28;20454;-86
2022/07/12 10:05:11;;;;;;;;;;;;;;;31.09;39.23;102395.25;5067943;28;20018;-87
2022/07/12 10:07:39;;;;;;;;;;;;;;;31.35;39.92;102394.47;5066681;28;20102;-87
2022/07/12 10:10:05;;;;;;;;;;;;;;;31.36;36.39;102398.91;5064987;28;19916;-87
2022/07/12 10:12:30;;;;;;;;;;;;;;;30.99;39.22;102392.63;5065391;28;20323;-88
2022/07/12 10:15:00;;;;;;;;;;;;;;;30.71;38.32;102389.13;5064386;28;19974;-87
2022/07/12 10:17:26;;;;;;;;;;;;;;;30.78;38.48;102399.41;5066749;28;20039;-87
2022/07/12 10:20:11;;;;;;;;;;;;;;;30.60;38.75;102386.63;5069536;28;20443;-86
2022/07/12 10:22:36;;;;;;;;;;;;;;;30.62;39.14;102386.44;5068479;28;19916;-87
2022/07/12 10:25:01;;;;;;;;;;;;;;;30.32;39.25;102376.78;5071152;28;20374;-87
2022/07/12 10:27:28;;;;;;;;;;;;;;;30.14;38.42;102380.31;5065072;28;19913;-88
2022/07/12 10:30:11;;;;;;;;;;;;;;;30.01;39.67;102384.38;5066542;28;20396;-87
2022/07/12 10:32:39;;;;;;;;;;;;;;;30.05;40.01;102385.78;5051573;28;19916;-87
2022/07/12 10:35:06;;;;;;;;;;;;;;;30.86;38.45;102381.25;5061072;28;19975;-87
2022/07/12 10:37:32;;;;;;;;;;;;;;;31.28;36.57;102379.72;5049295;28;19927;-87
2022/07/12 10:40:12;;;;;;;;;;;;;;;31.05;37.67;102374.72;5069076;28;19920;-87
2022/07/12 10:42:38;;;;;;;;;;;;;;;31.17;36.96;102375.34;5067958;28;19913;-87
2022/07/12 10:45:14;;;;;;;;;;;;;;;31.62;37.00;102377.91;5065258;28;20357;-87
2022/07/12 10:47:59;;;;;;;;;;;;;;;31.84;35.61;102386.56;5063075;28;19963;-87
2022/07/12 10:50:45;;;;;;;;;;;;;;;31.50;35.92;102380.03;5067675;28;19923;-87
2022/07/12 10:53:23;;;;;;;;;;;;;;;31.59;37.01;102378.22;5050887;28;19924;-88
2022/07/12 10:56:21;;;;;;;;;;;;;;;31.55;37.27;102381.44;5071608;28;20356;-87
2022/07/12 10:58:50;;;;;;;;;;;;;;;31.78;34.13;102376.25;5007890;28;19916;-88
2022/07/12 11:01:19;;;;;;;;;;;;;;;31.69;35.01;102378.94;5060797;28;20389;-87
2022/07/12 11:03:46;;;;;;;;;;;;;;;31.43;35.48;102381.72;5059975;28;20014;-87
2022/07/12 11:06:22;;;;;;;;;;;;;;;31.64;36.10;102372.25;5063788;28;20387;-88
2022/07/12 11:08:47;;;;;;;;;;;;;;;32.30;34.06;102378.88;5063874;28;19923;-88
2022/07/12 11:11:12;;;;;;;;;;;;;;;32.78;34.96;102383.56;5047332;28;19917;-88
2022/07/12 11:13:38;;;;;;;;;;;;;;;32.56;32.83;102379.63;5048114;28;19931;-88
2022/07/12 11:16:03;;;;;;;;;;;;;;;32.57;35.15;102383.22;5042766;28;20291;-89
2022/07/12 11:18:29;;;;;;;;;;;;;;;32.78;34.81;102375.34;5060609;28;20387;-88
2022/07/12 11:20:56;;;;;;;;;;;;;;;32.93;34.09;102372.84;5066004;28;19924;-88
2022/07/12 11:23:21;;;;;;;;;;;;;;;32.99;31.75;102372.16;5071127;28;19912;-89
2022/07/12 11:25:47;;;;;;;;;;;;;;;33.09;35.01;102378.31;5065487;28;20291;-88
2022/07/12 11:28:12;;;;;;;;;;;;;;;32.90;35.00;102378.63;5064139;28;20363;-88
2022/07/12 11:30:46;;;;;;;;;;;;;;;33.16;34.23;102373.00;5062809;28;19927;-88
2022/07/12 11:33:12;;;;;;;;;;;;;;;33.29;34.48;102370.56;5050972;28;20368;-89
2022/07/12 11:35:37;;;;;;;;;;;;;;;33.54;33.74;102363.19;5067226;28;19924;-88
2022/07/12 11:38:02;;;;;;;;;;;;;;;33.43;32.98;102363.53;5048975;28;19916;-88
2022/07/12 11:40:29;;;;;;;;;;;;;;;33.27;32.00;102358.91;5064629;28;20411;-88
2022/07/12 11:42:58;;;;;;;;;;;;;;;33.36;33.78;102351.53;5067815;28;19969;-89
2022/07/12 11:45:24;;;;;;;;;;;;;;;33.58;34.14;102345.34;5063241;28;20403;-88
2022/07/12 11:47:49;;;;;;;;;;;;;;;33.83;32.65;102358.94;5061958;28;19955;-88
2022/07/12 11:50:17;;;;;;;;;;;;;;;33.56;32.17;102357.50;5066994;28;19916;-88
2022/07/12 11:52:43;;;;;;;;;;;;;;;32.94;33.81;102367.19;5048312;28;20420;-87
2022/07/12 11:55:08;;;;;;;;;;;;;;;32.87;34.10;102362.53;5061687;28;19972;-89
2022/07/12 11:57:33;;;;;;;;;;;;;;;33.12;32.32;102358.78;5065701;28;19959;-89
2022/07/12 12:00:12;;;;;;;;;;;;;;;33.41;33.24;102360.94;5049461;28;19965;-89
2022/07/12 12:02:37;;;;;;;;;;;;;;;33.64;31.44;102362.97;5069516;28;19966;-89
2022/07/12 12:05:04;;;;;;;;;;;;;;;33.00;32.03;102358.25;5071646;28;20390;-89
2022/07/12 12:07:29;;;;;;;;;;;;;;;32.85;32.30;102359.09;5063955;28;19917;-88
2022/07/12 12:10:04;;;;;;;;;;;;;;;33.31;31.89;102346.56;5064522;28;19977;-87
2022/07/12 12:12:48;;;;;;;;;;;;;;;32.88;30.81;102356.88;5067587;28;19916;-89
2022/07/12 12:15:17;;;;;;;;;;;;;;;33.07;33.47;102354.84;5064997;28;19935;-89
2022/07/12 12:17:44;;;;;;;;;;;;;;;33.59;32.34;102340.72;5068459;28;20003;-88
2022/07/12 12:20:10;;;;;;;;;;;;;;;34.00;31.77;102345.00;5052503;28;19916;-88
2022/07/12 12:22:36;;;;;;;;;;;;;;;34.32;30.21;102337.59;5067085;28;20383;-88
2022/07/12 12:25:04;;;;;;;;;;;;;;;34.20;30.65;102336.31;5071622;28;19920;-89
2022/07/12 12:27:29;;;;;;;;;;;;;;;34.45;31.09;102334.25;5049573;28;20299;-88
2022/07/12 12:29:58;;;;;;;;;;;;;;;34.31;31.29;102332.28;5070273;28;19924;-89
2022/07/12 12:32:23;;;;;;;;;;;;;;;34.13;30.93;102338.91;5066008;28;19972;-87
2022/07/12 12:35:04;;;;;;;;;;;;;;;34.33;30.93;102331.06;5071942;28;20023;-88
2022/07/12 12:37:29;;;;;;;;;;;;;;;34.43;31.19;102333.56;5058201;28;19916;-88
2022/07/12 12:39:55;;;;;;;;;;;;;;;34.59;30.90;102333.47;5067222;28;19973;-88
2022/07/12 12:42:24;;;;;;;;;;;;;;;34.82;29.85;102327.94;5066751;28;19963;-88